createdAt,value
2022-11-19T00:01:15.703Z,5.70
2022-11-19T00:03:45.659Z,6.00
2022-11-19T00:06:18.061Z,5.50
2022-11-19T00:08:45.821Z,5.70
2022-11-19T00:11:44.628Z,5.63
2022-11-19T00:14:13.429Z,5.25
2022-11-19T00:16:40.446Z,5.20
2022-11-19T00:19:07.180Z,5.70
2022-11-19T00:21:34.021Z,5.28
2022-11-19T00:24:00.549Z,4.80
2022-11-19T00:26:27.639Z,5.78
2022-11-19T00:28:55.239Z,5.03
2022-11-19T00:31:21.846Z,5.50
2022-11-19T00:33:50.587Z,5.32
2022-11-19T00:36:17.664Z,5.10
2022-11-19T00:38:44.245Z,5.40
2022-11-19T00:41:11.595Z,5.43
2022-11-19T00:43:47.149Z,4.85
2022-11-19T00:46:25.173Z,5.50
2022-11-19T00:48:54.116Z,5.43
2022-11-19T00:51:22.340Z,5.97
2022-11-19T00:53:49.315Z,6.00
2022-11-19T00:56:18.242Z,5.97
2022-11-19T00:58:46.019Z,5.22
2022-11-19T01:01:14.372Z,4.90
2022-11-19T01:03:42.404Z,5.38
2022-11-19T01:06:09.876Z,5.10
2022-11-19T01:08:37.406Z,5.75
2022-11-19T01:11:15.208Z,4.95
2022-11-19T01:13:42.624Z,5.63
2022-11-19T01:16:13.376Z,5.82
2022-11-19T01:18:41.512Z,5.25
2022-11-19T01:21:10.789Z,5.10
2022-11-19T01:23:39.205Z,4.95
2022-11-19T01:26:06.224Z,5.57
2022-11-19T01:28:32.849Z,5.18
2022-11-19T01:30:59.771Z,5.05
2022-11-19T01:33:26.505Z,5.25
2022-11-19T01:36:01.317Z,5.50
2022-11-19T01:38:29.180Z,5.70
2022-11-19T01:40:56.745Z,5.05
2022-11-19T01:43:43.895Z,5.65
2022-11-19T01:46:13.173Z,5.15
2022-11-19T01:49:06.299Z,5.25
2022-11-19T01:51:38.507Z,5.15
2022-11-19T01:54:12.768Z,5.65
2022-11-19T01:56:39.665Z,4.93
2022-11-19T01:59:11.253Z,5.00
2022-11-19T02:01:37.883Z,5.68
2022-11-19T02:04:06.309Z,4.60
2022-11-19T02:06:33.961Z,4.88
2022-11-19T02:09:00.698Z,5.55
2022-11-19T02:12:05.723Z,5.65
2022-11-19T02:14:35.160Z,5.00
2022-11-19T02:17:33.372Z,4.97
2022-11-19T02:20:28.732Z,4.75
2022-11-19T02:23:13.268Z,4.78
2022-11-19T02:25:58.561Z,4.65
2022-11-19T02:28:40.712Z,5.20
2022-11-19T02:31:21.914Z,5.38
2022-11-19T02:34:01.343Z,4.78
2022-11-19T02:36:50.182Z,5.25
2022-11-19T02:39:35.391Z,5.50
2022-11-19T02:42:10.576Z,5.18
2022-11-19T02:44:58.807Z,4.97
2022-11-19T02:47:34.179Z,5.20
2022-11-19T02:50:10.962Z,5.40
2022-11-19T02:52:43.870Z,4.63
2022-11-19T02:55:18.933Z,5.65
2022-11-19T02:57:57.611Z,4.97
2022-11-19T03:00:43.453Z,5.45
2022-11-19T03:03:35.611Z,5.03
2022-11-19T03:06:11.854Z,5.10
2022-11-19T03:08:39.064Z,4.82
2022-11-19T03:11:26.569Z,5.30
2022-11-19T03:14:20.977Z,4.65
2022-11-19T03:16:58.605Z,5.18
2022-11-19T03:19:36.671Z,5.82
2022-11-19T03:22:10.050Z,4.97
2022-11-19T03:24:41.879Z,5.10
2022-11-19T03:27:16.196Z,5.55
2022-11-19T03:29:50.571Z,5.00
2022-11-19T03:32:22.639Z,5.28
2022-11-19T03:34:56.344Z,5.22
2022-11-19T03:37:25.357Z,5.75
2022-11-19T03:39:53.955Z,5.38
2022-11-19T03:42:22.180Z,4.88
2022-11-19T03:44:54.542Z,5.05
2022-11-19T03:47:37.089Z,5.60
2022-11-19T03:50:18.962Z,5.35
2022-11-19T03:52:45.611Z,4.88
2022-11-19T03:55:12.639Z,5.70
2022-11-19T03:57:39.672Z,5.03
2022-11-19T04:00:06.722Z,4.90
2022-11-19T04:02:40.025Z,5.70
2022-11-19T04:05:06.959Z,5.72
2022-11-19T04:07:33.871Z,5.07
2022-11-19T04:10:00.570Z,4.45
2022-11-19T04:12:27.104Z,5.30
2022-11-19T04:14:53.781Z,4.63
2022-11-19T04:17:20.737Z,5.35
2022-11-19T04:19:47.548Z,4.82
2022-11-19T04:22:14.062Z,5.43
2022-11-19T04:24:40.624Z,4.82
2022-11-19T04:27:07.193Z,5.28
2022-11-19T04:29:33.780Z,4.97
2022-11-19T04:32:00.364Z,4.53
2022-11-19T04:34:27.016Z,5.40
2022-11-19T04:36:53.886Z,4.95
2022-11-19T04:39:20.973Z,5.47
2022-11-19T04:41:47.818Z,5.00
2022-11-19T04:44:14.376Z,5.40
2022-11-19T04:46:40.941Z,5.10
2022-11-19T04:49:07.473Z,5.38
2022-11-19T04:51:34.123Z,5.00
2022-11-19T04:54:00.958Z,5.03
2022-11-19T04:56:27.801Z,5.25
2022-11-19T04:58:54.374Z,5.55
2022-11-19T05:01:21.220Z,4.75
2022-11-19T05:03:48.475Z,5.05
2022-11-19T05:06:15.066Z,5.38
2022-11-19T05:08:41.770Z,5.65
2022-11-19T05:11:08.516Z,5.88
2022-11-19T05:13:35.234Z,5.93
2022-11-19T05:16:02.058Z,8.60
2022-11-19T05:18:28.660Z,6.20
2022-11-19T05:20:55.371Z,5.85
2022-11-19T05:23:22.411Z,6.20
2022-11-19T05:25:49.291Z,6.00
2022-11-19T05:28:15.878Z,4.68
2022-11-19T05:30:42.615Z,5.38
2022-11-19T05:33:09.288Z,4.95
2022-11-19T05:35:35.890Z,5.88
2022-11-19T05:38:02.776Z,5.10
2022-11-19T05:40:29.415Z,5.00
2022-11-19T05:42:56.095Z,4.80
2022-11-19T05:45:23.480Z,5.00
2022-11-19T05:47:54.888Z,4.95
2022-11-19T05:50:21.409Z,4.80
2022-11-19T05:52:50.522Z,5.13
2022-11-19T05:55:17.516Z,5.40
2022-11-19T05:57:44.209Z,5.50
2022-11-19T06:00:11.820Z,5.55
2022-11-19T06:02:41.390Z,4.85
2022-11-19T06:05:08.405Z,4.80
2022-11-19T06:07:35.096Z,5.90
2022-11-19T06:10:05.323Z,5.60
2022-11-19T06:12:31.910Z,5.85
2022-11-19T06:14:59.273Z,6.35
2022-11-19T06:17:25.854Z,6.95
2022-11-19T06:19:52.479Z,6.78
2022-11-19T06:22:19.246Z,6.43
2022-11-19T06:24:45.946Z,7.20
2022-11-19T06:27:12.695Z,6.10
2022-11-19T06:29:39.196Z,6.05
2022-11-19T06:32:05.878Z,6.07
2022-11-19T06:34:32.443Z,6.85
2022-11-19T06:36:59.096Z,6.60
2022-11-19T06:39:25.768Z,6.80
2022-11-19T06:41:52.413Z,6.70
2022-11-19T06:44:19.285Z,6.75
2022-11-19T06:46:46.405Z,7.80
2022-11-19T06:49:18.411Z,7.45
2022-11-19T06:51:47.585Z,6.38
2022-11-19T06:54:14.163Z,6.65
2022-11-19T06:56:40.937Z,6.07
2022-11-19T06:59:07.502Z,6.00
2022-11-19T07:01:34.320Z,6.30
2022-11-19T07:04:01.256Z,6.15
2022-11-19T07:06:27.768Z,6.25
2022-11-19T07:08:54.291Z,6.43
2022-11-19T07:11:26.825Z,6.55
2022-11-19T07:13:58.016Z,8.00
2022-11-19T07:16:33.405Z,8.45
2022-11-19T07:19:02.852Z,7.30
2022-11-19T07:21:30.093Z,6.97
2022-11-19T07:23:58.210Z,5.65
2022-11-19T07:26:25.559Z,6.47
2022-11-19T07:28:52.875Z,5.72
2022-11-19T07:31:24.514Z,6.60
2022-11-19T07:33:51.074Z,7.35
2022-11-19T07:36:18.675Z,7.38
2022-11-19T07:38:46.346Z,6.80
2022-11-19T07:41:32.678Z,7.07
2022-11-19T07:43:59.264Z,9.00
2022-11-19T07:46:25.908Z,8.85
2022-11-19T07:48:56.879Z,7.93
2022-11-19T07:51:26.766Z,8.23
2022-11-19T07:53:57.712Z,7.85
2022-11-19T07:56:25.034Z,7.45
2022-11-19T07:58:52.438Z,7.90
2022-11-19T08:01:24.142Z,6.30
2022-11-19T08:03:56.375Z,6.00
2022-11-19T08:06:26.068Z,6.22
2022-11-19T08:08:55.032Z,6.00
2022-11-19T08:11:22.161Z,6.85
2022-11-19T08:13:49.106Z,7.60
2022-11-19T08:16:35.980Z,7.22
2022-11-19T08:19:04.382Z,7.35
2022-11-19T08:21:31.079Z,7.43
2022-11-19T08:23:57.994Z,7.88
2022-11-19T08:26:24.839Z,6.95
2022-11-19T08:28:51.714Z,7.82
2022-11-19T08:31:18.430Z,6.38
2022-11-19T08:33:46.589Z,6.53
2022-11-19T08:36:15.853Z,8.07
2022-11-19T08:38:42.519Z,7.63
2022-11-19T08:41:27.783Z,7.95
2022-11-19T08:43:54.806Z,7.55
2022-11-19T08:46:21.488Z,7.03
2022-11-19T08:48:48.128Z,7.20
2022-11-19T08:51:16.549Z,6.97
2022-11-19T08:53:43.640Z,7.28
2022-11-19T08:56:14.024Z,7.55
2022-11-19T08:58:45.445Z,7.53
2022-11-19T09:01:14.075Z,8.82
2022-11-19T09:03:41.225Z,7.63
2022-11-19T09:06:08.321Z,9.77
2022-11-19T09:08:35.810Z,9.55
2022-11-19T09:11:14.288Z,8.70
2022-11-19T09:13:41.934Z,8.60
2022-11-19T09:16:09.958Z,8.57
2022-11-19T09:18:39.253Z,8.55
2022-11-19T09:21:07.803Z,7.55
2022-11-19T09:23:34.330Z,6.53
2022-11-19T09:26:03.619Z,5.03
2022-11-19T09:28:31.308Z,5.15
2022-11-19T09:31:02.195Z,3.50
2022-11-19T09:33:34.444Z,3.80
2022-11-19T09:36:01.443Z,4.03
2022-11-19T09:38:28.097Z,4.00
2022-11-19T09:40:56.806Z,4.50
2022-11-19T09:43:49.202Z,4.80
2022-11-19T09:46:36.847Z,4.07
2022-11-19T09:49:11.876Z,4.72
2022-11-19T09:51:42.675Z,4.82
2022-11-19T09:54:18.973Z,5.38
2022-11-19T09:56:47.609Z,6.22
2022-11-19T09:59:27.300Z,6.47
2022-11-19T10:01:56.638Z,5.45
2022-11-19T10:04:26.140Z,4.68
2022-11-19T10:07:01.819Z,5.82
2022-11-19T10:09:44.639Z,6.05
2022-11-19T10:12:20.675Z,6.00
2022-11-19T10:15:11.008Z,5.47
2022-11-19T10:18:02.458Z,5.20
2022-11-19T10:20:50.761Z,5.38
2022-11-19T10:23:20.623Z,5.15
2022-11-19T10:25:50.341Z,5.15
2022-11-19T10:28:25.648Z,5.68
2022-11-19T10:30:55.796Z,5.63
2022-11-19T10:33:32.682Z,4.80
2022-11-19T10:36:06.879Z,4.53
2022-11-19T10:38:40.572Z,6.32
2022-11-19T10:41:23.391Z,5.35
2022-11-19T10:43:59.752Z,4.65
2022-11-19T10:46:28.617Z,4.72
2022-11-19T10:48:58.394Z,4.30
2022-11-19T10:51:33.666Z,4.32
2022-11-19T10:54:04.356Z,4.05
2022-11-19T10:56:40.266Z,6.32
2022-11-19T10:59:12.375Z,4.88
2022-11-19T11:01:45.087Z,4.68
2022-11-19T11:04:26.209Z,4.07
2022-11-19T11:06:58.495Z,3.92
2022-11-19T11:09:37.027Z,3.88
2022-11-19T11:12:40.752Z,3.90
2022-11-19T11:15:15.734Z,3.38
2022-11-19T11:17:44.641Z,3.42
2022-11-19T11:20:14.120Z,4.57
2022-11-19T11:22:40.880Z,3.88
2022-11-19T11:25:27.226Z,3.45
2022-11-19T11:28:17.783Z,3.70
2022-11-19T11:31:00.953Z,3.25
2022-11-19T11:33:32.604Z,3.30
2022-11-19T11:36:03.437Z,3.05
2022-11-19T11:38:30.957Z,4.05
2022-11-19T11:41:35.300Z,4.30
2022-11-19T11:44:02.516Z,4.10
2022-11-19T11:46:51.180Z,4.53
2022-11-19T11:49:43.277Z,4.18
2022-11-19T11:52:09.872Z,3.92
2022-11-19T11:54:37.515Z,3.92
2022-11-19T11:57:25.162Z,3.75
2022-11-19T11:59:52.234Z,3.78
2022-11-19T12:02:21.250Z,3.35
2022-11-19T12:04:50.094Z,3.10
2022-11-19T12:07:51.574Z,3.13
2022-11-19T12:10:26.717Z,3.88
2022-11-19T12:13:44.407Z,3.90
2022-11-19T12:16:26.583Z,3.35
2022-11-19T12:19:24.721Z,3.53
2022-11-19T12:22:00.555Z,3.80
2022-11-19T12:24:30.133Z,3.70
2022-11-19T12:27:08.494Z,3.58
2022-11-19T12:29:38.049Z,3.55
2022-11-19T12:32:19.680Z,3.50
2022-11-19T12:34:55.092Z,3.53
2022-11-19T12:37:49.337Z,3.58
2022-11-19T12:40:42.407Z,4.32
2022-11-19T12:43:34.091Z,4.05
2022-11-19T12:46:25.149Z,3.97
2022-11-19T12:49:09.423Z,3.75
2022-11-19T12:51:44.335Z,4.55
2022-11-19T12:54:27.858Z,3.53
2022-11-19T12:57:19.187Z,4.65
2022-11-19T13:00:18.815Z,3.67
2022-11-19T13:03:12.370Z,3.47
2022-11-19T13:06:02.738Z,3.63
2022-11-19T13:08:49.847Z,3.47
2022-11-19T13:11:36.717Z,3.35
2022-11-19T13:14:11.338Z,3.22
2022-11-19T13:16:38.012Z,3.20
2022-11-19T13:19:20.208Z,3.30
2022-11-19T13:21:55.984Z,3.50
2022-11-19T13:24:35.236Z,3.25
2022-11-19T13:27:05.390Z,3.10
2022-11-19T13:29:54.261Z,3.30
2022-11-19T13:32:44.234Z,3.08
2022-11-19T13:35:18.582Z,2.65
2022-11-19T13:37:58.273Z,3.13
2022-11-19T13:40:37.268Z,3.17
2022-11-19T13:43:32.072Z,2.75
2022-11-19T13:46:16.540Z,2.50
2022-11-19T13:48:54.710Z,3.08
2022-11-19T13:51:39.155Z,3.40
2022-11-19T13:54:08.243Z,3.17
2022-11-19T13:56:40.425Z,3.20
2022-11-19T13:59:08.543Z,3.60
2022-11-19T14:01:55.906Z,3.90
2022-11-19T14:04:32.692Z,4.07
2022-11-19T14:06:59.302Z,3.88
2022-11-19T14:09:46.115Z,3.83
2022-11-19T14:12:34.640Z,3.83
2022-11-19T14:15:46.464Z,3.90
2022-11-19T14:18:43.327Z,4.03
2022-11-19T14:21:44.262Z,3.85
2022-11-19T14:24:45.051Z,3.60
2022-11-19T14:27:20.891Z,3.83
2022-11-19T14:29:47.348Z,4.10
2022-11-19T14:32:13.772Z,3.60
2022-11-19T14:39:53.955Z,3.80
2022-11-19T14:42:21.912Z,3.33
2022-11-19T14:45:04.077Z,3.33
2022-11-19T14:47:43.349Z,3.83
2022-11-19T14:50:26.008Z,3.67
2022-11-19T14:52:56.094Z,3.47
2022-11-19T14:55:26.062Z,3.30
2022-11-19T14:58:02.411Z,3.95
2022-11-19T15:00:28.996Z,5.50
2022-11-19T15:02:56.784Z,4.72
2022-11-19T15:05:31.299Z,9.85
2022-11-19T15:08:43.141Z,11.40
2022-11-19T15:11:14.421Z,12.45
2022-11-19T15:13:48.999Z,7.47
2022-11-19T15:16:27.769Z,6.25
2022-11-19T15:19:00.326Z,8.43
2022-11-19T15:21:51.132Z,4.22
2022-11-19T15:24:27.213Z,4.80
2022-11-19T15:26:53.861Z,5.63
2022-11-19T15:30:05.235Z,5.63
2022-11-19T15:32:50.426Z,5.47
2022-11-19T15:35:30.932Z,6.18
2022-11-19T15:38:04.325Z,5.55
2022-11-19T15:40:36.269Z,5.15
2022-11-19T15:43:15.146Z,4.78
2022-11-19T15:46:03.597Z,4.90
2022-11-19T15:48:32.946Z,4.85
2022-11-19T15:51:01.172Z,5.72
2022-11-19T15:53:28.293Z,5.55
2022-11-19T15:55:59.836Z,5.47
2022-11-19T15:58:36.913Z,5.93
2022-11-19T16:01:04.487Z,7.32
2022-11-19T16:03:32.535Z,7.20
2022-11-19T16:06:03.631Z,6.95
2022-11-19T16:08:30.676Z,6.82
2022-11-19T16:11:20.579Z,6.65
2022-11-19T16:14:10.952Z,7.30
2022-11-19T16:16:56.490Z,7.35
2022-11-19T16:19:23.773Z,6.90
2022-11-19T16:21:58.879Z,7.57
2022-11-19T16:24:46.266Z,6.30
2022-11-19T16:27:20.529Z,8.25
2022-11-19T16:29:47.224Z,7.75
2022-11-19T16:32:21.821Z,9.48
2022-11-19T16:34:48.558Z,9.25
2022-11-19T16:37:21.774Z,9.70
2022-11-19T16:39:53.228Z,12.10
2022-11-19T16:42:26.807Z,9.43
2022-11-19T16:45:08.451Z,9.93
2022-11-19T16:47:40.037Z,7.78
2022-11-19T16:50:29.551Z,7.32
2022-11-19T16:52:56.383Z,6.55
2022-11-19T16:55:25.910Z,7.47
2022-11-19T16:57:56.874Z,7.20
2022-11-19T17:00:28.536Z,7.95
2022-11-19T17:02:55.410Z,8.20
2022-11-19T17:05:24.864Z,7.65
2022-11-19T17:08:05.764Z,9.45
2022-11-19T17:10:34.161Z,9.32
2022-11-19T17:13:28.255Z,9.18
2022-11-19T17:15:55.153Z,9.40
2022-11-19T17:18:34.449Z,10.10
2022-11-19T17:21:08.998Z,10.82
2022-11-19T17:23:48.259Z,14.32
2022-11-19T17:26:22.500Z,11.27
2022-11-19T17:28:52.243Z,9.63
2022-11-19T17:31:27.400Z,8.55
2022-11-19T17:34:07.344Z,10.50
2022-11-19T17:36:34.083Z,9.48
2022-11-19T17:39:00.733Z,9.00
2022-11-19T17:41:48.317Z,8.90
2022-11-19T17:44:34.679Z,8.25
2022-11-19T17:47:07.383Z,8.35
2022-11-19T17:49:45.805Z,8.98
2022-11-19T17:52:24.685Z,9.63
2022-11-19T17:54:53.942Z,9.27
2022-11-19T17:57:20.768Z,9.02
2022-11-19T17:59:47.430Z,9.25
2022-11-19T18:02:17.029Z,8.55
2022-11-19T18:04:45.306Z,8.55
2022-11-19T18:07:12.575Z,9.90
2022-11-19T18:09:40.561Z,10.45
2022-11-19T18:12:12.517Z,9.27
2022-11-19T18:14:39.200Z,9.43
2022-11-19T18:17:06.004Z,9.32
2022-11-19T18:19:33.789Z,10.25
2022-11-19T18:22:00.469Z,9.40
2022-11-19T18:24:27.326Z,9.70
2022-11-19T18:26:54.031Z,9.00
2022-11-19T18:29:21.192Z,9.70
2022-11-19T18:31:50.892Z,9.45
2022-11-19T18:34:20.484Z,10.02
2022-11-19T18:36:47.187Z,9.75
2022-11-19T18:39:14.601Z,10.13
2022-11-19T18:41:41.857Z,9.02
2022-11-19T18:44:32.485Z,9.60
2022-11-19T18:47:03.941Z,10.98
2022-11-19T18:49:30.852Z,10.40
2022-11-19T18:51:57.494Z,10.23
2022-11-19T18:54:24.191Z,10.13
2022-11-19T18:56:51.062Z,10.30
2022-11-19T18:59:18.327Z,9.98
2022-11-19T19:01:45.404Z,10.25
2022-11-19T19:04:14.430Z,12.88
2022-11-19T19:06:41.861Z,11.20
2022-11-19T19:09:10.362Z,10.07
2022-11-19T19:11:56.932Z,9.20
2022-11-19T19:14:23.520Z,9.15
2022-11-19T19:16:51.009Z,8.63
2022-11-19T19:19:19.992Z,9.20
2022-11-19T19:21:47.409Z,9.25
2022-11-19T19:24:14.551Z,10.07
2022-11-19T19:26:41.661Z,10.25
2022-11-19T19:29:08.506Z,10.02
2022-11-19T19:31:36.169Z,11.85
2022-11-19T19:34:03.319Z,11.70
2022-11-19T19:36:30.397Z,11.52
2022-11-19T19:38:57.166Z,12.10
2022-11-19T19:41:26.104Z,11.27
2022-11-19T19:43:54.764Z,10.90
2022-11-19T19:46:23.559Z,10.43
2022-11-19T19:48:52.478Z,10.50
2022-11-19T19:51:21.103Z,10.07
2022-11-19T19:53:48.389Z,10.23
2022-11-19T19:56:19.093Z,11.23
2022-11-19T19:58:47.120Z,10.27
2022-11-19T20:01:16.757Z,10.60
2022-11-19T20:03:44.755Z,11.80
2022-11-19T20:06:13.422Z,11.15
2022-11-19T20:08:40.899Z,11.77
2022-11-19T20:11:13.486Z,11.15
2022-11-19T20:13:40.946Z,10.77
2022-11-19T20:16:14.576Z,10.52
2022-11-19T20:18:45.688Z,10.70
2022-11-19T20:21:15.561Z,10.68
2022-11-19T20:23:42.697Z,13.60
2022-11-19T20:26:18.002Z,18.33
2022-11-19T20:28:45.401Z,15.48
2022-11-19T20:31:18.418Z,16.42
2022-11-19T20:33:46.621Z,13.25
2022-11-19T20:36:15.718Z,13.00
2022-11-19T20:38:44.260Z,13.75
2022-11-19T20:41:33.368Z,12.15
2022-11-19T20:44:20.343Z,14.20
2022-11-19T20:46:47.237Z,14.05
2022-11-19T20:49:16.941Z,13.95
2022-11-19T20:51:45.188Z,15.25
2022-11-19T20:54:12.276Z,15.32
2022-11-19T20:56:39.980Z,15.30
2022-11-19T20:59:06.921Z,14.48
2022-11-19T21:01:34.581Z,14.00
2022-11-19T21:04:01.574Z,14.75
2022-11-19T21:06:28.640Z,13.23
2022-11-19T21:08:55.995Z,12.00
2022-11-19T21:11:22.664Z,13.85
2022-11-19T21:13:49.463Z,11.18
2022-11-19T21:16:24.054Z,11.85
2022-11-19T21:18:51.308Z,12.52
2022-11-19T21:21:19.705Z,12.23
2022-11-19T21:23:46.746Z,12.23
2022-11-19T21:26:19.775Z,12.77
2022-11-19T21:28:49.342Z,11.90
2022-11-19T21:31:18.122Z,11.60
2022-11-19T21:33:44.724Z,11.25
2022-11-19T21:36:12.500Z,11.13
2022-11-19T21:38:39.492Z,12.43
2022-11-19T21:41:07.028Z,10.77
2022-11-19T21:43:33.930Z,10.38
2022-11-19T21:46:00.541Z,10.52
2022-11-19T21:48:27.290Z,10.35
2022-11-19T21:50:54.289Z,10.85
2022-11-19T21:53:21.214Z,10.73
2022-11-19T21:55:48.403Z,10.68
2022-11-19T21:58:15.488Z,10.10
2022-11-19T22:00:43.892Z,10.07
2022-11-19T22:03:10.630Z,10.80
2022-11-19T22:05:37.203Z,11.20
2022-11-19T22:08:03.940Z,10.38
2022-11-19T22:10:30.719Z,10.90
2022-11-19T22:13:00.122Z,11.07
2022-11-19T22:15:27.189Z,10.57
2022-11-19T22:17:54.842Z,11.10
2022-11-19T22:20:21.818Z,10.30
2022-11-19T22:22:48.420Z,10.35
2022-11-19T22:25:15.319Z,10.55
2022-11-19T22:27:42.034Z,10.60
2022-11-19T22:30:10.055Z,10.85
2022-11-19T22:32:37.038Z,10.80
2022-11-19T22:35:04.911Z,11.25
2022-11-19T22:37:31.980Z,11.18
2022-11-19T22:39:58.646Z,11.25
2022-11-19T22:42:25.365Z,11.20
2022-11-19T22:44:52.373Z,11.55
2022-11-19T22:47:19.070Z,11.80
2022-11-19T22:49:45.647Z,11.77
2022-11-19T22:52:14.570Z,11.05
2022-11-19T22:54:41.967Z,11.35
2022-11-19T22:57:09.698Z,10.25
2022-11-19T22:59:36.760Z,10.95
2022-11-19T23:02:03.827Z,10.43
2022-11-19T23:04:30.484Z,10.93
2022-11-19T23:06:57.238Z,11.38
2022-11-19T23:09:24.239Z,11.18
2022-11-19T23:12:09.833Z,10.50
2022-11-19T23:14:36.655Z,10.15
2022-11-19T23:17:04.430Z,10.52
2022-11-19T23:19:31.204Z,11.32
2022-11-19T23:21:57.877Z,11.07
2022-11-19T23:24:24.499Z,9.98
2022-11-19T23:26:51.103Z,10.57
2022-11-19T23:29:17.880Z,8.90
2022-11-19T23:31:44.728Z,9.98
2022-11-19T23:34:11.840Z,9.00
2022-11-19T23:36:40.486Z,8.98
2022-11-19T23:39:12.701Z,9.70
2022-11-19T23:41:39.524Z,9.20
2022-11-19T23:44:06.210Z,9.80
2022-11-19T23:46:34.897Z,9.73
2022-11-19T23:49:03.187Z,10.00
2022-11-19T23:51:32.548Z,9.40
2022-11-19T23:53:59.313Z,8.95
2022-11-19T23:56:26.895Z,9.25
2022-11-19T23:58:53.835Z,8.70
